Currently 79°F in Beaumont, California, USA
79°F
89°F / 70°F
6 mph NW
0.00"
Saturday, September 22, 2018 7:25 PM PDT

Beaumont, California Weather Summary
Last 36 Hours

Temperature Winds Hourly Humidity Dewpoint
Time Report Norm Report Norm Max Gusts Precip. Rpt. Norm Rpt. Norm Pressure
1Sat 07:25 PM  78.6°F  73°F  6 mph NW  3 mph  10 mph  0.00"  36%  44%  48°F  49°F  29.74"
Sat 07:00 PM  80.1°F  74°F  3 mph NW  3 mph  12 mph  0.00"  35%  42%  49°F  49°F  29.74"
Sat 06:00 PM  83.7°F  78°F  2 mph NW  4 mph  17 mph  0.00"  27%  37%  45°F  48°F  29.73"
Sat 05:00 PM  86.4°F  80°F  4 mph NW  4 mph  10 mph  0.00"  25%  33%  45°F  47°F  29.73"
Sat 04:00 PM  87.1°F  81°F  5 mph SE  5 mph  16 mph  0.00"  22%  32%  42°F  47°F  29.73"
2Sat 03:13 PM  88.9°F  81°F  4 mph SW  4 mph  12 mph  ----  21%  32%  43°F  47°F  29.74"
Sat 03:00 PM  88.2°F  81°F  7 mph W  4 mph  17 mph  0.00"  22%  32%  43°F  47°F  29.75"
Sat 02:01 PM  87.1°F  80°F  6 mph NE  5 mph  13 mph  0.00"  23%  33%  44°F  48°F  29.77"
Sat 01:00 PM  87.3°F  79°F  4 mph S  5 mph  16 mph  0.00"  24%  35%  45°F  48°F  29.80"
Sat 12:00 PM  86.5°F  78°F  2 mph SW  5 mph  12 mph  0.00"  24%  37%  44°F  49°F  29.82"
Sat 11:00 AM  84.4°F  77°F  3 mph SW  5 mph  9 mph  0.00"  23%  39%  41°F  49°F  29.85"
Sat 10:00 AM  80.8°F  74°F  2 mph S  4 mph  8 mph  0.00"  25%  43%  40°F  49°F  29.85"
Sat 09:00 AM  78.1°F  72°F  4 mph S  3 mph  7 mph  0.00"  29%  46%  42°F  49°F  29.84"
Sat 08:00 AM  75.4°F  70°F  calm  2 mph  5 mph  0.00"  31%  48%  42°F  48°F  29.83"
Sat 07:00 AM  73.8°F  67°F  3 mph NW  2 mph  7 mph  0.00"  28%  50%  37°F  47°F  29.82"
Sat 06:00 AM  71.6°F  66°F  4 mph NW  2 mph  5 mph  0.00"  29%  50%  36°F  46°F  29.82"
Sat 05:00 AM  72.1°F  66°F  3 mph NW  2 mph  5 mph  0.00"  28%  51%  36°F  47°F  29.81"
Sat 04:00 AM  70.5°F  66°F  2 mph NW  2 mph  5 mph  0.00"  32%  51%  38°F  47°F  29.82"
Sat 03:00 AM  70.5°F  66°F  2 mph NW  2 mph  5 mph  0.00"  34%  51%  40°F  47°F  29.83"
Sat 02:00 AM  70.5°F  66°F  3 mph NW  2 mph  5 mph  0.00"  36%  53%  41°F  48°F  29.84"
3Sat 01:46 AM  70.0°F  66°F  3 mph NW  2 mph  5 mph  ----  37%  53%  42°F  48°F  29.84"
Sat 01:00 AM  70.5°F  66°F  2 mph NW  2 mph  5 mph  0.00"  38%  53%  43°F  48°F  29.85"
Sat 12:00 AM  71.6°F  67°F  4 mph NW  2 mph  5 mph  0.00"  36%  53%  42°F  49°F  29.86"
Fri 11:00 PM  70.2°F  68°F  3 mph NW  2 mph  3 mph  0.00"  37%  52%  42°F  49°F  29.86"
Fri 10:00 PM  71.1°F  69°F  calm  2 mph  5 mph  0.00"  35%  52%  41°F  50°F  29.86"
Fri 09:00 PM  73.8°F  70°F  calm  2 mph  5 mph  0.00"  33%  49%  42°F  50°F  29.85"
Fri 08:00 PM  74.8°F  72°F  3 mph NW  3 mph  12 mph  0.00"  36%  48%  45°F  50°F  29.83"
Fri 07:00 PM  78.8°F  74°F  5 mph NW  3 mph  8 mph  0.00"  33%  44%  46°F  50°F  29.82"
Fri 06:00 PM  82.6°F  78°F  4 mph W  3 mph  10 mph  0.00"  26%  38%  43°F  49°F  29.82"
Fri 05:00 PM  84.4°F  80°F  3 mph W  4 mph  14 mph  0.00"  28%  35%  47°F  49°F  29.81"
Fri 04:00 PM  85.6°F  81°F  3 mph SW  4 mph  12 mph  0.00"  27%  33%  47°F  48°F  29.82"
Fri 03:00 PM  85.1°F  81°F  4 mph SW  4 mph  13 mph  0.00"  27%  33%  46°F  48°F  29.83"
Fri 02:00 PM  85.5°F  81°F  3 mph SW  4 mph  13 mph  0.00"  25%  34%  44°F  49°F  29.85"
Fri 01:00 PM  85.3°F  80°F  5 mph S  5 mph  13 mph  0.00"  22%  36%  41°F  49°F  29.86"
Fri 12:00 PM  83.1°F  78°F  7 mph S  4 mph  13 mph  0.00"  29%  38%  46°F  50°F  29.87"
Fri 11:00 AM  82.8°F  77°F  3 mph SW  4 mph  10 mph  0.00"  28%  41%  45°F  50°F  29.88"
Fri 10:00 AM  80.8°F  74°F  5 mph S  4 mph  9 mph  0.00"  28%  44%  43°F  50°F  29.87"
Fri 09:00 AM  79.9°F  72°F  1 mph E  3 mph  5 mph  0.00"  26%  47%  41°F  50°F  29.86"
Fri 08:00 AM  76.5°F  70°F  3 mph NE  2 mph  6 mph  0.00"  37%  49%  47°F  49°F  29.86"

  1. Current weather data. No green row appears if the current weather data is also the high or low for the current day.
  2. High temperature for the current day.
  3. Low temperature for the current day.

The Beaumont, California weather pages are a service of WeatherCurrents. Cherry Valley is located in northern Riverside County, California, a community of the northern part of Beaumont, along the Interstate 10 highway, in the San Gorgonio pass area, between the communities of Calimesa, Banning.
Copyright ©Sat Sep 22 19:29:19 PDT 2018  WeatherCurrents. All rights reserved. - Submit questions and comments - Privacy Policy

This page automatically refreshes every 10 minutes.